sensor_id;sensor_type;location;lat;lon;timestamp;pressure;altitude;pressure_sealevel;temperature;humidity
68075;BME280;54864;52.002;5.468;2022-11-20T00:00:43;101247.41;;;0.50;63.65
68075;BME280;54864;52.002;5.468;2022-11-20T00:01:45;101252.56;;;0.47;64.03
68075;BME280;54864;52.002;5.468;2022-11-20T00:02:47;101246.53;;;0.51;63.98
68075;BME280;54864;52.002;5.468;2022-11-20T00:03:49;101251.72;;;0.52;63.97
68075;BME280;54864;52.002;5.468;2022-11-20T00:04:52;101251.72;;;0.46;63.90
68075;BME280;54864;52.002;5.468;2022-11-20T00:05:53;101247.38;;;0.47;64.02
68075;BME280;54864;52.002;5.468;2022-11-20T00:06:54;101248.25;;;0.50;64.00
68075;BME280;54864;52.002;5.468;2022-11-20T00:07:56;101242.19;;;0.48;63.86
68075;BME280;54864;52.002;5.468;2022-11-20T00:08:58;101247.38;;;0.44;64.16
68075;BME280;54864;52.002;5.468;2022-11-20T00:10:01;101247.38;;;0.41;64.02
68075;BME280;54864;52.002;5.468;2022-11-20T00:11:04;101253.44;;;0.49;63.65
68075;BME280;54864;52.002;5.468;2022-11-20T00:12:24;101242.19;;;0.42;63.94
68075;BME280;54864;52.002;5.468;2022-11-20T00:13:25;101245.63;;;0.40;64.12
68075;BME280;54864;52.002;5.468;2022-11-20T00:14:27;101232.66;;;0.32;63.94
68075;BME280;54864;52.002;5.468;2022-11-20T00:15:28;101251.66;;;0.29;64.35
68075;BME280;54864;52.002;5.468;2022-11-20T00:16:32;101239.56;;;0.31;64.27
68075;BME280;54864;52.002;5.468;2022-11-20T00:17:35;101232.63;;;0.21;64.64
68075;BME280;54864;52.002;5.468;2022-11-20T00:18:37;101238.66;;;0.16;64.91
68075;BME280;54864;52.002;5.468;2022-11-20T00:19:38;101228.28;;;0.14;65.05
68075;BME280;54864;52.002;5.468;2022-11-20T00:20:40;101228.28;;;0.14;64.92
68075;BME280;54864;52.002;5.468;2022-11-20T00:21:41;101234.38;;;0.27;64.72
68075;BME280;54864;52.002;5.468;2022-11-20T00:22:42;101231.78;;;0.35;64.59
68075;BME280;54864;52.002;5.468;2022-11-20T00:23:44;101235.22;;;0.27;64.63
68075;BME280;54864;52.002;5.468;2022-11-20T00:24:46;101239.56;;;0.33;64.59
68075;BME280;54864;52.002;5.468;2022-11-20T00:25:47;101242.16;;;0.28;64.31
68075;BME280;54864;52.002;5.468;2022-11-20T00:26:49;101247.34;;;0.28;64.61
68075;BME280;54864;52.002;5.468;2022-11-20T00:27:51;101236.94;;;0.21;64.77
68075;BME280;54864;52.002;5.468;2022-11-20T00:28:53;101236.94;;;0.24;64.61
68075;BME280;54864;52.002;5.468;2022-11-20T00:29:56;101246.44;;;0.17;64.98
68075;BME280;54864;52.002;5.468;2022-11-20T00:31:01;101243.84;;;0.16;64.67
68075;BME280;54864;52.002;5.468;2022-11-20T00:32:04;101240.38;;;0.14;65.15
68075;BME280;54864;52.002;5.468;2022-11-20T00:33:06;101240.38;;;0.12;65.22
68075;BME280;54864;52.002;5.468;2022-11-20T00:34:09;101240.34;;;0.08;65.19
68075;BME280;54864;52.002;5.468;2022-11-20T00:35:10;101245.53;;;0.09;65.05
68075;BME280;54864;52.002;5.468;2022-11-20T00:36:14;101236.03;;;0.10;64.80
68075;BME280;54864;52.002;5.468;2022-11-20T00:37:16;101236.03;;;0.10;65.16
68075;BME280;54864;52.002;5.468;2022-11-20T00:38:18;101232.56;;;0.09;65.29
68075;BME280;54864;52.002;5.468;2022-11-20T00:39:19;101242.91;;;0.02;65.44
68075;BME280;54864;52.002;5.468;2022-11-20T00:40:20;101248.03;;;-0.03;65.32
68075;BME280;54864;52.002;5.468;2022-11-20T00:41:22;101242.00;;;-0.04;65.32
68075;BME280;54864;52.002;5.468;2022-11-20T00:42:25;101241.09;;;-0.10;65.47
68075;BME280;54864;52.002;5.468;2022-11-20T00:43:26;101242.84;;;-0.09;65.75
68075;BME280;54864;52.002;5.468;2022-11-20T00:44:28;101244.53;;;-0.17;65.61
68075;BME280;54864;52.002;5.468;2022-11-20T00:45:29;101233.25;;;-0.24;65.59
68075;BME280;54864;52.002;5.468;2022-11-20T00:46:31;101234.09;;;-0.26;66.05
68075;BME280;54864;52.002;5.468;2022-11-20T00:47:32;101226.28;;;-0.34;66.24
68075;BME280;54864;52.002;5.468;2022-11-20T00:48:35;101232.38;;;-0.29;66.09
68075;BME280;54864;52.002;5.468;2022-11-20T00:49:36;101235.00;;;-0.21;65.54
68075;BME280;54864;52.002;5.468;2022-11-20T00:50:39;101222.97;;;-0.04;65.35
68075;BME280;54864;52.002;5.468;2022-11-20T00:51:41;101229.09;;;0.04;64.69
68075;BME280;54864;52.002;5.468;2022-11-20T00:52:43;101230.75;;;-0.04;64.58
68075;BME280;54864;52.002;5.468;2022-11-20T00:53:44;101229.03;;;-0.05;65.00
68075;BME280;54864;52.002;5.468;2022-11-20T00:54:46;101228.97;;;-0.16;65.12
68075;BME280;54864;52.002;5.468;2022-11-20T00:55:55;101233.34;;;-0.07;64.89
68075;BME280;54864;52.002;5.468;2022-11-20T00:56:56;101235.03;;;-0.15;64.78
68075;BME280;54864;52.002;5.468;2022-11-20T00:57:58;101227.25;;;-0.18;64.95
68075;BME280;54864;52.002;5.468;2022-11-20T00:59:00;101222.84;;;-0.33;65.22
68075;BME280;54864;52.002;5.468;2022-11-20T01:00:02;101221.09;;;-0.40;65.75
68075;BME280;54864;52.002;5.468;2022-11-20T01:01:06;101219.41;;;-0.32;65.64
68075;BME280;54864;52.002;5.468;2022-11-20T01:02:09;101220.28;;;-0.27;65.49
68075;BME280;54864;52.002;5.468;2022-11-20T01:03:10;101220.25;;;-0.36;65.31
68075;BME280;54864;52.002;5.468;2022-11-20T01:04:13;101226.31;;;-0.28;65.24
68075;BME280;54864;52.002;5.468;2022-11-20T01:05:15;101218.53;;;-0.31;65.80
68075;BME280;54864;52.002;5.468;2022-11-20T01:06:18;101220.31;;;-0.24;65.54
68075;BME280;54864;52.002;5.468;2022-11-20T01:07:21;101218.59;;;-0.22;65.40
68075;BME280;54864;52.002;5.468;2022-11-20T01:08:22;101211.66;;;-0.24;65.17
68075;BME280;54864;52.002;5.468;2022-11-20T01:09:24;101213.44;;;-0.17;65.31
68075;BME280;54864;52.002;5.468;2022-11-20T01:10:25;101215.06;;;-0.35;65.49
68075;BME280;54864;52.002;5.468;2022-11-20T01:11:29;101216.81;;;-0.34;65.76
68075;BME280;54864;52.002;5.468;2022-11-20T01:12:30;101213.34;;;-0.33;65.35
68075;BME280;54864;52.002;5.468;2022-11-20T01:13:32;101207.28;;;-0.39;65.47
68075;BME280;54864;52.002;5.468;2022-11-20T01:14:39;101217.59;;;-0.48;65.50
68075;BME280;54864;52.002;5.468;2022-11-20T01:15:41;101218.41;;;-0.54;65.77
68075;BME280;54864;52.002;5.468;2022-11-20T01:16:43;101214.97;;;-0.54;65.79
68075;BME280;54864;52.002;5.468;2022-11-20T01:17:47;101226.16;;;-0.58;65.63
68075;BME280;54864;52.002;5.468;2022-11-20T01:18:49;101221.88;;;-0.53;65.45
68075;BME280;54864;52.002;5.468;2022-11-20T01:19:54;101215.81;;;-0.55;66.01
68075;BME280;54864;52.002;5.468;2022-11-20T01:20:55;101217.63;;;-0.42;66.08
68075;BME280;54864;52.002;5.468;2022-11-20T01:21:57;101221.81;;;-0.61;66.03
68075;BME280;54864;52.002;5.468;2022-11-20T01:22:58;101220.19;;;-0.44;65.74
68075;BME280;54864;52.002;5.468;2022-11-20T01:24:02;101225.31;;;-0.53;65.80
68075;BME280;54864;52.002;5.468;2022-11-20T01:25:06;101218.47;;;-0.43;65.71
68075;BME280;54864;52.002;5.468;2022-11-20T01:26:09;101221.00;;;-0.55;65.85
68075;BME280;54864;52.002;5.468;2022-11-20T01:27:13;101220.16;;;-0.53;65.55
68075;BME280;54864;52.002;5.468;2022-11-20T01:28:14;101223.66;;;-0.42;65.16
68075;BME280;54864;52.002;5.468;2022-11-20T01:29:17;101223.69;;;-0.40;65.41
68075;BME280;54864;52.002;5.468;2022-11-20T01:30:20;101219.34;;;-0.44;65.52
68075;BME280;54864;52.002;5.468;2022-11-20T01:31:23;101220.16;;;-0.48;65.82
68075;BME280;54864;52.002;5.468;2022-11-20T01:32:26;101222.78;;;-0.45;65.61
68075;BME280;54864;52.002;5.468;2022-11-20T01:33:27;101217.63;;;-0.39;65.36
68075;BME280;54864;52.002;5.468;2022-11-20T01:34:29;101222.81;;;-0.42;65.44
68075;BME280;54864;52.002;5.468;2022-11-20T01:35:31;101215.88;;;-0.45;65.46
68075;BME280;54864;52.002;5.468;2022-11-20T01:36:35;101215.03;;;-0.42;65.71
68075;BME280;54864;52.002;5.468;2022-11-20T01:37:37;101208.09;;;-0.48;65.56
68075;BME280;54864;52.002;5.468;2022-11-20T01:38:39;101207.19;;;-0.56;66.02
68075;BME280;54864;52.002;5.468;2022-11-20T01:39:40;101204.63;;;-0.51;66.16
68075;BME280;54864;52.002;5.468;2022-11-20T01:40:42;101215.03;;;-0.42;65.50
68075;BME280;54864;52.002;5.468;2022-11-20T01:41:43;101204.69;;;-0.36;65.68
68075;BME280;54864;52.002;5.468;2022-11-20T01:43:14;101217.66;;;-0.36;65.53
68075;BME280;54864;52.002;5.468;2022-11-20T01:46:01;101222.72;;;-0.53;66.10
68075;BME280;54864;52.002;5.468;2022-11-20T01:47:17;101219.28;;;-0.55;65.50
68075;BME280;54864;52.002;5.468;2022-11-20T01:48:25;101218.41;;;-0.52;65.55
68075;BME280;54864;52.002;5.468;2022-11-20T01:49:34;101222.72;;;-0.54;65.31
68075;BME280;54864;52.002;5.468;2022-11-20T01:50:42;101215.78;;;-0.61;65.54
68075;BME280;54864;52.002;5.468;2022-11-20T01:51:45;101202.75;;;-0.71;65.97
68075;BME280;54864;52.002;5.468;2022-11-20T01:52:52;101210.47;;;-0.75;65.91
68075;BME280;54864;52.002;5.468;2022-11-20T01:54:01;101207.81;;;-0.84;66.14
68075;BME280;54864;52.002;5.468;2022-11-20T01:55:09;101205.25;;;-0.81;66.53
68075;BME280;54864;52.002;5.468;2022-11-20T01:56:13;101201.81;;;-0.80;66.51
68075;BME280;54864;52.002;5.468;2022-11-20T01:57:18;101208.00;;;-0.65;66.38
68075;BME280;54864;52.002;5.468;2022-11-20T01:58:22;101210.63;;;-0.55;66.06
68075;BME280;54864;52.002;5.468;2022-11-20T01:59:29;101204.56;;;-0.59;65.82
68075;BME280;54864;52.002;5.468;2022-11-20T02:00:31;101201.88;;;-0.70;66.14
68075;BME280;54864;52.002;5.468;2022-11-20T02:01:33;101209.63;;;-0.71;66.23
68075;BME280;54864;52.002;5.468;2022-11-20T02:02:36;101213.97;;;-0.70;66.00
68075;BME280;54864;52.002;5.468;2022-11-20T02:03:39;101215.66;;;-0.72;66.13
68075;BME280;54864;52.002;5.468;2022-11-20T02:04:43;101217.41;;;-0.70;65.88
68075;BME280;54864;52.002;5.468;2022-11-20T02:05:49;101219.16;;;-0.66;65.43
68075;BME280;54864;52.002;5.468;2022-11-20T02:06:57;101224.41;;;-0.59;65.81
68075;BME280;54864;52.002;5.468;2022-11-20T02:08:03;101223.53;;;-0.63;65.83
68075;BME280;54864;52.002;5.468;2022-11-20T02:09:06;101223.47;;;-0.66;65.59
68075;BME280;54864;52.002;5.468;2022-11-20T02:10:07;101217.44;;;-0.68;65.93
68075;BME280;54864;52.002;5.468;2022-11-20T02:11:08;101208.75;;;-0.73;65.67
68075;BME280;54864;52.002;5.468;2022-11-20T02:12:10;101209.72;;;-0.63;65.59
68075;BME280;54864;52.002;5.468;2022-11-20T02:13:31;101207.94;;;-0.69;65.91
68075;BME280;54864;52.002;5.468;2022-11-20T02:14:45;101213.00;;;-0.83;66.33
68075;BME280;54864;52.002;5.468;2022-11-20T02:15:46;101205.97;;;-1.02;66.51
68075;BME280;54864;52.002;5.468;2022-11-20T02:16:49;101199.88;;;-1.10;66.99
68075;BME280;54864;52.002;5.468;2022-11-20T02:17:53;101203.44;;;-0.96;66.62
68075;BME280;54864;52.002;5.468;2022-11-20T02:18:56;101213.81;;;-0.91;66.94
68075;BME280;54864;52.002;5.468;2022-11-20T02:20:00;101207.84;;;-0.83;66.27
68075;BME280;54864;52.002;5.468;2022-11-20T02:21:06;101204.44;;;-0.76;65.91
68075;BME280;54864;52.002;5.468;2022-11-20T02:22:19;101204.41;;;-0.79;65.86
68075;BME280;54864;52.002;5.468;2022-11-20T02:23:26;101206.09;;;-0.84;65.83
68075;BME280;54864;52.002;5.468;2022-11-20T02:24:35;101198.28;;;-0.90;66.11
68075;BME280;54864;52.002;5.468;2022-11-20T02:25:36;101201.69;;;-0.96;66.24
68075;BME280;54864;52.002;5.468;2022-11-20T02:26:46;101199.97;;;-0.95;65.60
68075;BME280;54864;52.002;5.468;2022-11-20T02:27:48;101199.88;;;-1.07;66.49
68075;BME280;54864;52.002;5.468;2022-11-20T02:28:50;101193.81;;;-1.12;66.50
68075;BME280;54864;52.002;5.468;2022-11-20T02:29:53;101196.34;;;-1.18;66.95
68075;BME280;54864;52.002;5.468;2022-11-20T02:30:58;101191.25;;;-1.11;66.65
68075;BME280;54864;52.002;5.468;2022-11-20T02:32:00;101194.63;;;-1.18;66.47
68075;BME280;54864;52.002;5.468;2022-11-20T02:33:04;101181.72;;;-1.16;66.73
68075;BME280;54864;52.002;5.468;2022-11-20T02:34:05;101190.47;;;-0.99;66.60
68075;BME280;54864;52.002;5.468;2022-11-20T02:35:08;101182.72;;;-0.98;65.84
68075;BME280;54864;52.002;5.468;2022-11-20T02:36:32;101184.41;;;-1.01;65.85
68075;BME280;54864;52.002;5.468;2022-11-20T02:37:39;101180.03;;;-1.10;66.67
68075;BME280;54864;52.002;5.468;2022-11-20T02:38:41;101179.97;;;-1.17;66.76
68075;BME280;54864;52.002;5.468;2022-11-20T02:39:47;101174.66;;;-1.31;66.84
68075;BME280;54864;52.002;5.468;2022-11-20T02:40:50;101174.63;;;-1.34;67.21
68075;BME280;54864;52.002;5.468;2022-11-20T02:41:52;101175.47;;;-1.37;67.07
68075;BME280;54864;52.002;5.468;2022-11-20T02:42:56;101175.47;;;-1.37;66.90
68075;BME280;54864;52.002;5.468;2022-11-20T02:43:57;101168.75;;;-1.21;66.72
68075;BME280;54864;52.002;5.468;2022-11-20T02:44:59;101174.63;;;-1.34;66.61
68075;BME280;54864;52.002;5.468;2022-11-20T02:46:00;101178.19;;;-1.24;66.68
68075;BME280;54864;52.002;5.468;2022-11-20T02:47:02;101174.63;;;-1.36;67.03
68075;BME280;54864;52.002;5.468;2022-11-20T02:48:05;101180.81;;;-1.20;66.71
68075;BME280;54864;52.002;5.468;2022-11-20T02:49:07;101180.81;;;-1.21;66.70
68075;BME280;54864;52.002;5.468;2022-11-20T02:50:09;101183.38;;;-1.24;66.61
68075;BME280;54864;52.002;5.468;2022-11-20T02:51:10;101184.25;;;-1.22;66.95
68075;BME280;54864;52.002;5.468;2022-11-20T02:52:12;101183.41;;;-1.18;66.99
68075;BME280;54864;52.002;5.468;2022-11-20T02:53:13;101186.78;;;-1.27;67.04
68075;BME280;54864;52.002;5.468;2022-11-20T02:54:15;101186.81;;;-1.24;67.22
68075;BME280;54864;52.002;5.468;2022-11-20T02:55:17;101179.91;;;-1.25;67.18
68075;BME280;54864;52.002;5.468;2022-11-20T02:56:19;101178.16;;;-1.29;67.54
68075;BME280;54864;52.002;5.468;2022-11-20T02:57:20;101184.28;;;-1.18;67.21
68075;BME280;54864;52.002;5.468;2022-11-20T02:58:22;101192.00;;;-1.22;67.46
68075;BME280;54864;52.002;5.468;2022-11-20T02:59:23;101181.66;;;-1.24;67.39
68075;BME280;54864;52.002;5.468;2022-11-20T03:00:25;101188.63;;;-1.12;66.67
68075;BME280;54864;52.002;5.468;2022-11-20T03:01:26;101182.59;;;-1.11;66.77
68075;BME280;54864;52.002;5.468;2022-11-20T03:02:29;101182.59;;;-1.11;66.94
68075;BME280;54864;52.002;5.468;2022-11-20T03:03:30;101184.34;;;-1.12;67.03
68075;BME280;54864;52.002;5.468;2022-11-20T03:04:32;101180.03;;;-1.11;67.03
68075;BME280;54864;52.002;5.468;2022-11-20T03:05:34;101182.59;;;-1.11;66.87
68075;BME280;54864;52.002;5.468;2022-11-20T03:06:35;101185.25;;;-1.05;66.77
68075;BME280;54864;52.002;5.468;2022-11-20T03:07:37;101180.09;;;-1.04;66.90
68075;BME280;54864;52.002;5.468;2022-11-20T03:08:38;101181.75;;;-1.10;66.83
68075;BME280;54864;52.002;5.468;2022-11-20T03:09:39;101179.09;;;-1.18;67.04
68075;BME280;54864;52.002;5.468;2022-11-20T03:10:42;101170.34;;;-1.31;67.84
68075;BME280;54864;52.002;5.468;2022-11-20T03:11:44;101179.13;;;-1.16;67.19
68075;BME280;54864;52.002;5.468;2022-11-20T03:12:45;101177.44;;;-1.10;67.10
68075;BME280;54864;52.002;5.468;2022-11-20T03:13:46;101174.00;;;-1.09;67.24
68075;BME280;54864;52.002;5.468;2022-11-20T03:14:47;101170.56;;;-1.09;67.09
68075;BME280;54864;52.002;5.468;2022-11-20T03:15:49;101176.59;;;-1.09;66.96
68075;BME280;54864;52.002;5.468;2022-11-20T03:16:50;101172.25;;;-1.14;66.92
68075;BME280;54864;52.002;5.468;2022-11-20T03:17:53;101170.59;;;-1.05;66.97
68075;BME280;54864;52.002;5.468;2022-11-20T03:18:55;101167.16;;;-1.04;66.55
68075;BME280;54864;52.002;5.468;2022-11-20T03:19:56;101168.00;;;-1.06;66.23
68075;BME280;54864;52.002;5.468;2022-11-20T03:20:57;101172.25;;;-1.14;66.27
68075;BME280;54864;52.002;5.468;2022-11-20T03:22:00;101170.47;;;-1.18;66.77
68075;BME280;54864;52.002;5.468;2022-11-20T03:23:01;101167.84;;;-1.24;66.68
68075;BME280;54864;52.002;5.468;2022-11-20T03:24:04;101165.31;;;-1.17;66.39
68075;BME280;54864;52.002;5.468;2022-11-20T03:25:06;101165.28;;;-1.21;67.00
68075;BME280;54864;52.002;5.468;2022-11-20T03:26:13;101161.94;;;-1.10;66.19
68075;BME280;54864;52.002;5.468;2022-11-20T03:27:15;101170.59;;;-1.05;66.36
68075;BME280;54864;52.002;5.468;2022-11-20T03:28:17;101168.84;;;-1.06;65.57
68075;BME280;54864;52.002;5.468;2022-11-20T03:29:18;101165.38;;;-1.09;65.79
68075;BME280;54864;52.002;5.468;2022-11-20T03:30:20;101168.75;;;-1.21;65.86
68075;BME280;54864;52.002;5.468;2022-11-20T03:31:22;101168.69;;;-1.25;66.56
68075;BME280;54864;52.002;5.468;2022-11-20T03:32:25;101157.41;;;-1.34;66.82
68075;BME280;54864;52.002;5.468;2022-11-20T03:33:28;101163.44;;;-1.32;66.67
68075;BME280;54864;52.002;5.468;2022-11-20T03:34:29;101159.94;;;-1.37;66.73
68075;BME280;54864;52.002;5.468;2022-11-20T03:35:30;101169.38;;;-1.43;67.17
68075;BME280;54864;52.002;5.468;2022-11-20T03:36:33;101169.38;;;-1.45;67.40
68075;BME280;54864;52.002;5.468;2022-11-20T03:37:34;101163.53;;;-1.25;67.16
68075;BME280;54864;52.002;5.468;2022-11-20T03:38:36;101167.06;;;-1.16;66.54
68075;BME280;54864;52.002;5.468;2022-11-20T03:39:37;101156.69;;;-1.19;66.57
68075;BME280;54864;52.002;5.468;2022-11-20T03:40:39;101160.97;;;-1.21;66.10
68075;BME280;54864;52.002;5.468;2022-11-20T03:41:41;101155.72;;;-1.30;66.45
68075;BME280;54864;52.002;5.468;2022-11-20T03:42:43;101160.06;;;-1.27;66.72
68075;BME280;54864;52.002;5.468;2022-11-20T03:43:48;101160.94;;;-1.27;66.33
68075;BME280;54864;52.002;5.468;2022-11-20T03:44:51;101160.09;;;-1.24;66.36
68075;BME280;54864;52.002;5.468;2022-11-20T03:45:52;101167.00;;;-1.20;66.21
68075;BME280;54864;52.002;5.468;2022-11-20T03:46:54;101157.50;;;-1.26;66.49
68075;BME280;54864;52.002;5.468;2022-11-20T03:47:56;101166.94;;;-1.30;66.09
68075;BME280;54864;52.002;5.468;2022-11-20T03:48:57;101163.44;;;-1.32;66.25
68075;BME280;54864;52.002;5.468;2022-11-20T03:49:59;101165.94;;;-1.42;66.78
68075;BME280;54864;52.002;5.468;2022-11-20T03:51:10;101153.91;;;-1.37;66.45
68075;BME280;54864;52.002;5.468;2022-11-20T03:52:12;101152.16;;;-1.40;66.64
68075;BME280;54864;52.002;5.468;2022-11-20T03:53:13;101155.56;;;-1.47;67.08
68075;BME280;54864;52.002;5.468;2022-11-20T03:54:16;101152.97;;;-1.47;66.72
68075;BME280;54864;52.002;5.468;2022-11-20T03:55:17;101141.56;;;-1.69;67.21
68075;BME280;54864;52.002;5.468;2022-11-20T03:56:19;101138.00;;;-1.81;67.34
68075;BME280;54864;52.002;5.468;2022-11-20T03:57:24;101144.13;;;-1.73;67.46
68075;BME280;54864;52.002;5.468;2022-11-20T03:58:26;101146.84;;;-1.58;67.40
68075;BME280;54864;52.002;5.468;2022-11-20T03:59:26;101147.69;;;-1.61;67.50
68075;BME280;54864;52.002;5.468;2022-11-20T04:00:28;101151.28;;;-1.42;66.74
68075;BME280;54864;52.002;5.468;2022-11-20T04:01:31;101151.31;;;-1.40;66.63
68075;BME280;54864;52.002;5.468;2022-11-20T04:02:34;101142.69;;;-1.39;66.71
68075;BME280;54864;52.002;5.468;2022-11-20T04:03:37;101145.25;;;-1.42;66.46
68075;BME280;54864;52.002;5.468;2022-11-20T04:04:40;101139.16;;;-1.50;66.59
68075;BME280;54864;52.002;5.468;2022-11-20T04:05:41;101140.84;;;-1.55;66.92
68075;BME280;54864;52.002;5.468;2022-11-20T04:06:43;101144.16;;;-1.69;66.96
68075;BME280;54864;52.002;5.468;2022-11-20T04:07:44;101144.19;;;-1.64;67.45
68075;BME280;54864;52.002;5.468;2022-11-20T04:08:46;101138.22;;;-1.60;67.36
68075;BME280;54864;52.002;5.468;2022-11-20T04:09:48;101136.44;;;-1.64;67.06
68075;BME280;54864;52.002;5.468;2022-11-20T04:10:49;101132.19;;;-1.57;66.91
68075;BME280;54864;52.002;5.468;2022-11-20T04:11:50;101133.94;;;-1.55;66.98
68075;BME280;54864;52.002;5.468;2022-11-20T04:12:54;101132.22;;;-1.53;66.62
68075;BME280;54864;52.002;5.468;2022-11-20T04:13:56;101137.44;;;-1.48;66.50
68075;BME280;54864;52.002;5.468;2022-11-20T04:15:00;101140.91;;;-1.46;66.46
68075;BME280;54864;52.002;5.468;2022-11-20T04:16:01;101137.47;;;-1.44;66.19
68075;BME280;54864;52.002;5.468;2022-11-20T04:17:03;101133.16;;;-1.48;66.11
68075;BME280;54864;52.002;5.468;2022-11-20T04:18:04;101130.53;;;-1.51;66.37
68075;BME280;54864;52.002;5.468;2022-11-20T04:19:11;101132.22;;;-1.56;65.92
68075;BME280;54864;52.002;5.468;2022-11-20T04:20:13;101135.63;;;-1.58;66.44
68075;BME280;54864;52.002;5.468;2022-11-20T04:21:15;101139.09;;;-1.56;66.67
68075;BME280;54864;52.002;5.468;2022-11-20T04:22:16;101138.19;;;-1.62;66.30
68075;BME280;54864;52.002;5.468;2022-11-20T04:23:17;101139.94;;;-1.61;66.84
68075;BME280;54864;52.002;5.468;2022-11-20T04:24:18;101134.78;;;-1.59;66.48
68075;BME280;54864;52.002;5.468;2022-11-20T04:25:20;101131.25;;;-1.67;66.43
68075;BME280;54864;52.002;5.468;2022-11-20T04:26:22;101132.06;;;-1.73;66.36
68075;BME280;54864;52.002;5.468;2022-11-20T04:27:26;101126.03;;;-1.73;66.64
68075;BME280;54864;52.002;5.468;2022-11-20T04:28:28;101133.72;;;-1.79;66.89
68075;BME280;54864;52.002;5.468;2022-11-20T04:29:30;101127.59;;;-1.89;67.41
68075;BME280;54864;52.002;5.468;2022-11-20T04:30:31;101131.16;;;-1.78;67.25
68075;BME280;54864;52.002;5.468;2022-11-20T04:31:34;101127.75;;;-1.72;67.09
68075;BME280;54864;52.002;5.468;2022-11-20T04:32:35;101127.78;;;-1.69;67.10
68075;BME280;54864;52.002;5.468;2022-11-20T04:33:37;101122.56;;;-1.75;67.00
68075;BME280;54864;52.002;5.468;2022-11-20T04:34:38;101125.97;;;-1.78;66.87
68075;BME280;54864;52.002;5.468;2022-11-20T04:35:40;101126.81;;;-1.82;67.06
68075;BME280;54864;52.002;5.468;2022-11-20T04:36:41;101123.38;;;-1.81;67.17
68075;BME280;54864;52.002;5.468;2022-11-20T04:37:43;101120.78;;;-1.81;67.10
68075;BME280;54864;52.002;5.468;2022-11-20T04:38:44;101121.66;;;-1.80;66.94
68075;BME280;54864;52.002;5.468;2022-11-20T04:39:47;101107.75;;;-1.92;67.09
68075;BME280;54864;52.002;5.468;2022-11-20T04:40:47;101125.91;;;-1.84;67.35
68075;BME280;54864;52.002;5.468;2022-11-20T04:41:49;101122.63;;;-1.68;67.01
68075;BME280;54864;52.002;5.468;2022-11-20T04:43:10;101115.81;;;-1.58;66.21
68075;BME280;54864;52.002;5.468;2022-11-20T04:44:13;101114.88;;;-1.68;66.35
68075;BME280;54864;52.002;5.468;2022-11-20T04:45:14;101113.94;;;-1.76;66.38
68075;BME280;54864;52.002;5.468;2022-11-20T04:46:17;101113.00;;;-1.84;66.41
68075;BME280;54864;52.002;5.468;2022-11-20T04:47:19;101111.28;;;-1.85;66.67
68075;BME280;54864;52.002;5.468;2022-11-20T04:48:21;101106.09;;;-1.85;66.77
68075;BME280;54864;52.002;5.468;2022-11-20T04:49:22;101105.25;;;-1.82;66.75
68075;BME280;54864;52.002;5.468;2022-11-20T04:50:24;101099.97;;;-1.95;66.84
68075;BME280;54864;52.002;5.468;2022-11-20T04:51:24;101088.63;;;-2.07;67.40
68075;BME280;54864;52.002;5.468;2022-11-20T04:52:26;101098.97;;;-2.06;67.07
68075;BME280;54864;52.002;5.468;2022-11-20T04:53:27;101093.78;;;-2.07;67.34
68075;BME280;54864;52.002;5.468;2022-11-20T04:54:29;101095.63;;;-1.96;67.65
68075;BME280;54864;52.002;5.468;2022-11-20T04:55:31;101094.97;;;-1.79;66.87
68075;BME280;54864;52.002;5.468;2022-11-20T04:56:33;101102.75;;;-1.73;66.61
68075;BME280;54864;52.002;5.468;2022-11-20T04:57:34;101101.84;;;-1.80;66.32
68075;BME280;54864;52.002;5.468;2022-11-20T04:58:36;101103.44;;;-1.93;66.73
68075;BME280;54864;52.002;5.468;2022-11-20T04:59:42;101102.56;;;-1.95;67.11
68075;BME280;54864;52.002;5.468;2022-11-20T05:00:44;101110.38;;;-1.88;66.73
68075;BME280;54864;52.002;5.468;2022-11-20T05:01:44;101107.78;;;-1.88;66.47
68075;BME280;54864;52.002;5.468;2022-11-20T05:02:46;101108.53;;;-1.97;66.88
68075;BME280;54864;52.002;5.468;2022-11-20T05:03:48;101107.75;;;-1.92;67.03
68075;BME280;54864;52.002;5.468;2022-11-20T05:04:50;101112.94;;;-1.90;67.03
68075;BME280;54864;52.002;5.468;2022-11-20T05:05:51;101116.38;;;-1.89;66.83
68075;BME280;54864;52.002;5.468;2022-11-20T05:06:53;101107.59;;;-2.05;67.26
68075;BME280;54864;52.002;5.468;2022-11-20T05:07:56;101108.53;;;-1.97;67.30
68075;BME280;54864;52.002;5.468;2022-11-20T05:08:58;101108.50;;;-2.00;67.27
68075;BME280;54864;52.002;5.468;2022-11-20T05:09:59;101105.94;;;-1.97;67.33
68075;BME280;54864;52.002;5.468;2022-11-20T05:11:02;101097.31;;;-2.01;67.32
68075;BME280;54864;52.002;5.468;2022-11-20T05:12:06;101100.75;;;-2.02;67.51
68075;BME280;54864;52.002;5.468;2022-11-20T05:13:12;101095.63;;;-1.97;67.34
68075;BME280;54864;52.002;5.468;2022-11-20T05:14:13;101096.59;;;-1.87;67.32
68075;BME280;54864;52.002;5.468;2022-11-20T05:15:16;101093.16;;;-1.86;66.74
68075;BME280;54864;52.002;5.468;2022-11-20T05:16:18;101096.69;;;-1.77;66.66
68075;BME280;54864;52.002;5.468;2022-11-20T05:17:22;101090.69;;;-1.76;66.79
68075;BME280;54864;52.002;5.468;2022-11-20T05:18:23;101091.50;;;-1.81;67.29
68075;BME280;54864;52.002;5.468;2022-11-20T05:19:24;101098.38;;;-1.83;66.68
68075;BME280;54864;52.002;5.468;2022-11-20T05:20:25;101094.06;;;-1.84;66.86
68075;BME280;54864;52.002;5.468;2022-11-20T05:21:30;101094.06;;;-1.84;66.76
68075;BME280;54864;52.002;5.468;2022-11-20T05:22:31;101087.06;;;-1.95;67.15
68075;BME280;54864;52.002;5.468;2022-11-20T05:23:33;101086.97;;;-1.99;67.70
68075;BME280;54864;52.002;5.468;2022-11-20T05:24:35;101079.25;;;-1.96;67.24
68075;BME280;54864;52.002;5.468;2022-11-20T05:25:36;101081.94;;;-1.90;67.53
68075;BME280;54864;52.002;5.468;2022-11-20T05:26:37;101083.72;;;-1.84;67.05
68075;BME280;54864;52.002;5.468;2022-11-20T05:27:39;101081.16;;;-1.81;66.94
68075;BME280;54864;52.002;5.468;2022-11-20T05:28:40;101077.75;;;-1.76;66.65
68075;BME280;54864;52.002;5.468;2022-11-20T05:29:42;101079.44;;;-1.81;66.66
68075;BME280;54864;52.002;5.468;2022-11-20T05:30:45;101078.50;;;-1.89;66.65